createdAt,value
2019-05-05T00:00:55.222Z,35.52
2019-05-05T00:03:25.707Z,38.40
2019-05-05T00:05:56.123Z,39.97
2019-05-05T00:08:24.646Z,41.42
2019-05-05T00:11:06.900Z,33.40
2019-05-05T00:13:39.709Z,47.23
2019-05-05T00:16:10.021Z,36.50
2019-05-05T00:18:38.507Z,42.20
2019-05-05T00:21:07.023Z,30.40
2019-05-05T00:23:35.513Z,39.35
2019-05-05T00:26:04.856Z,30.30
2019-05-05T00:28:35.403Z,40.50
2019-05-05T00:31:04.696Z,36.23
2019-05-05T00:33:34.350Z,37.40
2019-05-05T00:36:07.032Z,47.98
2019-05-05T00:38:35.047Z,44.70
2019-05-05T00:41:05.311Z,38.97
2019-05-05T00:43:34.511Z,42.88
2019-05-05T00:46:07.960Z,43.50
2019-05-05T00:48:38.089Z,52.73
2019-05-05T00:51:06.648Z,50.75
2019-05-05T00:53:35.141Z,53.35
2019-05-05T00:56:05.130Z,55.73
2019-05-05T00:58:35.445Z,69.22
2019-05-05T01:01:05.640Z,55.78
2019-05-05T01:03:34.809Z,57.40
2019-05-05T01:06:08.856Z,72.72
2019-05-05T01:08:37.419Z,63.48
2019-05-05T01:11:06.040Z,76.00
2019-05-05T01:13:35.181Z,63.60
2019-05-05T01:16:04.858Z,62.40
2019-05-05T01:18:35.124Z,57.78
2019-05-05T01:21:04.512Z,49.13
2019-05-05T01:23:35.013Z,59.88
2019-05-05T01:26:05.058Z,53.83
2019-05-05T01:28:35.519Z,57.85
2019-05-05T01:31:07.146Z,60.50
2019-05-05T01:33:54.199Z,60.53
2019-05-05T01:36:24.175Z,57.90
2019-05-05T01:38:57.106Z,54.13
2019-05-05T01:41:27.242Z,60.20
2019-05-05T01:43:55.873Z,61.83
2019-05-05T01:46:24.635Z,54.15
2019-05-05T01:48:54.930Z,47.23
2019-05-05T01:51:24.768Z,47.58
2019-05-05T01:53:54.563Z,44.35
2019-05-05T01:56:24.680Z,49.65
2019-05-05T01:58:54.759Z,48.68
2019-05-05T02:01:24.630Z,42.20
2019-05-05T02:03:54.909Z,36.10
2019-05-05T02:06:24.811Z,39.93
2019-05-05T02:08:54.822Z,40.30
2019-05-05T02:11:24.699Z,36.50
2019-05-05T02:13:54.614Z,33.98
2019-05-05T02:16:25.347Z,36.68
2019-05-05T02:18:54.503Z,35.07
2019-05-05T02:21:24.773Z,33.07
2019-05-05T02:23:54.781Z,29.57
2019-05-05T02:26:24.552Z,32.45
2019-05-05T02:28:57.575Z,29.60
2019-05-05T02:31:39.856Z,25.85
2019-05-05T02:34:10.273Z,27.10
2019-05-05T02:36:38.790Z,32.95
2019-05-05T02:39:10.747Z,26.42
2019-05-05T02:41:40.502Z,24.72
2019-05-05T02:44:09.559Z,29.50
2019-05-05T02:46:44.636Z,22.48
2019-05-05T02:49:15.125Z,22.23
2019-05-05T02:51:45.248Z,21.85
2019-05-05T02:54:14.177Z,20.75
2019-05-05T02:56:46.044Z,28.47
2019-05-05T02:59:19.161Z,20.45
2019-05-05T03:01:53.870Z,18.52
2019-05-05T03:04:24.434Z,15.65
2019-05-05T03:06:55.995Z,18.27
2019-05-05T03:11:56.954Z,17.48
2019-05-05T03:16:55.666Z,19.10
2019-05-05T03:19:25.286Z,17.77
2019-05-05T03:21:54.886Z,20.20
2019-05-05T03:24:23.644Z,19.07
2019-05-05T03:26:53.700Z,21.20
2019-05-05T03:29:24.200Z,26.97
2019-05-05T03:31:55.968Z,22.48
2019-05-05T03:34:23.995Z,23.73
2019-05-05T03:36:53.768Z,23.50
2019-05-05T03:39:27.097Z,25.23
2019-05-05T03:42:06.898Z,25.30
2019-05-05T03:44:40.477Z,25.88
2019-05-05T03:47:09.328Z,28.62
2019-05-05T03:49:38.173Z,29.82
2019-05-05T03:52:06.921Z,28.38
2019-05-05T03:54:35.572Z,31.87
2019-05-05T03:57:08.176Z,27.48
2019-05-05T03:59:39.126Z,31.48
2019-05-05T04:02:26.778Z,29.95
2019-05-05T04:04:56.897Z,34.87
2019-05-05T04:07:25.576Z,36.58
2019-05-05T04:09:54.387Z,42.03
2019-05-05T04:12:24.175Z,42.90
2019-05-05T04:14:54.658Z,48.17
2019-05-05T04:17:30.568Z,41.60
2019-05-05T04:20:00.758Z,58.90
2019-05-05T04:22:31.020Z,32.87
2019-05-05T04:24:59.533Z,34.50
2019-05-05T04:27:28.009Z,35.65
2019-05-05T04:29:56.539Z,35.95
2019-05-05T04:32:25.016Z,40.85
2019-05-05T04:34:54.331Z,34.63
2019-05-05T04:37:23.933Z,35.43
2019-05-05T04:39:53.759Z,35.30
2019-05-05T04:42:23.986Z,33.90
2019-05-05T04:44:53.832Z,37.38
2019-05-05T04:47:26.536Z,35.20
2019-05-05T04:49:59.397Z,39.38
2019-05-05T04:52:29.529Z,33.88
2019-05-05T04:54:58.042Z,38.33
2019-05-05T04:57:26.572Z,169.30
2019-05-05T04:59:55.057Z,52.38
2019-05-05T05:02:27.680Z,54.03
2019-05-05T05:04:58.090Z,72.33
2019-05-05T05:07:27.064Z,40.47
2019-05-05T05:09:55.545Z,42.03
2019-05-05T05:12:24.045Z,47.45
2019-05-05T05:14:54.478Z,47.83
2019-05-05T05:17:24.859Z,64.63
2019-05-05T05:19:54.184Z,36.00
2019-05-05T05:22:24.337Z,66.90
2019-05-05T05:24:54.071Z,48.02
2019-05-05T05:27:24.433Z,51.68
2019-05-05T05:29:54.369Z,45.83
2019-05-05T05:32:24.774Z,60.45
2019-05-05T05:34:54.261Z,69.22
2019-05-05T05:37:24.024Z,57.50
2019-05-05T05:39:57.013Z,65.92
2019-05-05T05:42:25.494Z,71.72
2019-05-05T05:44:55.629Z,53.20
2019-05-05T05:47:25.745Z,59.37
2019-05-05T05:50:07.654Z,46.80
2019-05-05T05:52:36.164Z,47.45
2019-05-05T05:55:06.517Z,49.03
2019-05-05T05:57:34.997Z,60.00
2019-05-05T06:00:05.125Z,43.95
2019-05-05T06:02:33.619Z,39.18
2019-05-05T06:05:04.241Z,69.87
2019-05-05T06:07:33.598Z,62.35
2019-05-05T06:10:03.735Z,60.15
2019-05-05T06:12:33.650Z,62.70
2019-05-05T06:15:03.828Z,54.38
2019-05-05T06:17:34.329Z,51.02
2019-05-05T06:20:04.072Z,52.95
2019-05-05T06:22:34.314Z,73.90
2019-05-05T06:25:06.376Z,78.45
2019-05-05T06:27:34.287Z,65.20
2019-05-05T06:30:04.526Z,74.72
2019-05-05T06:32:34.298Z,87.90
2019-05-05T06:35:03.688Z,85.43
2019-05-05T06:37:34.295Z,96.47
2019-05-05T06:40:04.544Z,85.90
2019-05-05T06:42:46.995Z,71.10
2019-05-05T06:45:17.193Z,70.65
2019-05-05T06:47:45.674Z,62.90
2019-05-05T06:50:14.250Z,54.10
2019-05-05T06:52:45.155Z,66.55
2019-05-05T06:55:14.087Z,50.48
2019-05-05T06:57:44.441Z,37.67
2019-05-05T07:00:13.956Z,44.30
2019-05-05T07:02:44.394Z,59.38
2019-05-05T07:05:14.313Z,64.40
2019-05-05T07:07:43.603Z,47.00
2019-05-05T07:10:14.096Z,52.56
2019-05-05T07:12:43.953Z,50.75
2019-05-05T07:15:14.513Z,50.60
2019-05-05T07:17:44.266Z,42.70
2019-05-05T07:20:13.630Z,87.37
2019-05-05T07:22:55.727Z,65.03
2019-05-05T07:25:13.730Z,81.42
2019-05-05T07:27:44.265Z,109.50
2019-05-05T07:30:13.840Z,62.58
2019-05-05T07:32:44.169Z,74.25
2019-05-05T07:35:14.681Z,43.30
2019-05-05T07:37:43.707Z,56.77
2019-05-05T07:40:13.531Z,65.05
2019-05-05T07:42:43.968Z,68.55
2019-05-05T07:45:21.800Z,47.03
2019-05-05T07:47:43.702Z,56.70
2019-05-05T07:50:27.947Z,51.18
2019-05-05T07:52:43.902Z,50.67
2019-05-05T07:55:14.353Z,65.97
2019-05-05T07:57:43.517Z,41.95
2019-05-05T08:00:14.778Z,50.40
2019-05-05T08:02:43.952Z,47.23
2019-05-05T08:05:14.120Z,46.70
2019-05-05T08:07:44.605Z,40.38
2019-05-05T08:10:13.870Z,46.13
2019-05-05T08:12:43.622Z,36.60
2019-05-05T08:15:14.807Z,37.42
2019-05-05T08:17:47.665Z,33.98
2019-05-05T08:20:21.085Z,37.10
2019-05-05T08:22:49.602Z,47.00
2019-05-05T08:25:34.487Z,64.30
2019-05-05T08:27:57.073Z,37.17
2019-05-05T08:30:33.715Z,46.45
2019-05-05T08:33:04.588Z,36.85
2019-05-05T08:35:34.438Z,38.60
2019-05-05T08:38:04.630Z,26.80
2019-05-05T08:40:34.565Z,40.73
2019-05-05T08:43:04.533Z,40.25
2019-05-05T08:45:36.141Z,33.83
2019-05-05T08:48:05.211Z,36.50
2019-05-05T08:50:34.812Z,35.43
2019-05-05T08:53:04.441Z,32.88
2019-05-05T08:55:34.033Z,35.93
2019-05-05T08:58:04.527Z,36.35
2019-05-05T09:00:33.924Z,35.77
2019-05-05T09:03:03.774Z,24.80
2019-05-05T09:05:34.336Z,27.42
2019-05-05T09:08:04.525Z,32.80
2019-05-05T09:10:34.244Z,36.50
2019-05-05T09:13:03.798Z,38.63
2019-05-05T09:15:33.689Z,35.78
2019-05-05T09:18:04.842Z,37.28
2019-05-05T09:20:34.777Z,38.80
2019-05-05T09:23:04.155Z,35.98
2019-05-05T09:25:44.687Z,38.45
2019-05-05T09:28:15.008Z,42.38
2019-05-05T09:30:45.281Z,39.75
2019-05-05T09:33:14.321Z,41.23
2019-05-05T09:35:43.897Z,35.25
2019-05-05T09:38:14.500Z,26.10
2019-05-05T09:40:43.956Z,32.58
2019-05-05T09:43:14.724Z,26.42
2019-05-05T09:45:44.293Z,31.60
2019-05-05T09:48:13.935Z,29.72
2019-05-05T09:50:43.674Z,26.93
2019-05-05T09:53:14.365Z,27.40
2019-05-05T09:55:44.308Z,33.10
2019-05-05T09:58:13.850Z,35.03
2019-05-05T10:00:44.180Z,30.82
2019-05-05T10:03:14.485Z,32.83
2019-05-05T10:05:43.541Z,31.87
2019-05-05T10:08:14.130Z,25.20
2019-05-05T10:10:44.274Z,37.05
2019-05-05T10:13:14.686Z,54.83
2019-05-05T10:15:44.366Z,42.00
2019-05-05T10:18:14.108Z,20.97
2019-05-05T10:20:42.923Z,32.98
2019-05-05T10:23:11.482Z,31.52
2019-05-05T10:25:46.206Z,41.28
2019-05-05T10:28:14.744Z,35.98
2019-05-05T10:30:43.309Z,39.83
2019-05-05T10:33:14.099Z,27.85
2019-05-05T10:35:43.751Z,50.80
2019-05-05T10:38:14.267Z,55.30
2019-05-05T10:40:44.720Z,46.33
2019-05-05T10:43:14.794Z,44.90
2019-05-05T10:45:44.047Z,31.97
2019-05-05T10:48:14.332Z,35.50
2019-05-05T10:50:44.437Z,24.87
2019-05-05T10:53:13.711Z,21.33
2019-05-05T10:55:44.839Z,32.00
2019-05-05T10:58:13.822Z,32.60
2019-05-05T11:00:48.476Z,28.15
2019-05-05T11:03:17.206Z,39.83
2019-05-05T11:05:46.142Z,50.12
2019-05-05T11:08:14.806Z,25.83
2019-05-05T11:10:44.987Z,32.28
2019-05-05T11:13:13.932Z,30.87
2019-05-05T11:15:44.338Z,22.00
2019-05-05T11:18:14.711Z,31.57
2019-05-05T11:20:44.714Z,22.97
2019-05-05T11:23:14.822Z,24.12
2019-05-05T11:25:44.380Z,29.92
2019-05-05T11:28:13.229Z,26.35
2019-05-05T11:30:45.228Z,19.60
2019-05-05T11:33:15.470Z,21.07
2019-05-05T11:36:00.805Z,31.55
2019-05-05T11:38:29.354Z,31.52
2019-05-05T11:40:58.454Z,18.07
2019-05-05T11:43:26.942Z,19.37
2019-05-05T11:45:55.434Z,13.40
2019-05-05T11:48:24.240Z,20.27
2019-05-05T11:50:53.989Z,26.45
2019-05-05T11:53:24.926Z,28.83
2019-05-05T11:55:54.977Z,21.85
2019-05-05T11:58:24.786Z,21.02
2019-05-05T12:00:54.451Z,19.37
2019-05-05T12:03:23.378Z,22.10
2019-05-05T12:05:52.046Z,19.02
2019-05-05T12:08:20.527Z,26.73
2019-05-05T12:10:54.199Z,17.07
2019-05-05T12:13:22.903Z,21.17
2019-05-05T12:15:59.173Z,15.00
2019-05-05T12:18:28.009Z,28.83
2019-05-05T12:20:56.584Z,18.02
2019-05-05T12:23:25.178Z,19.62
2019-05-05T12:25:58.972Z,19.62
2019-05-05T12:28:37.588Z,22.07
2019-05-05T12:31:16.540Z,35.03
2019-05-05T12:33:45.017Z,21.52
2019-05-05T12:36:15.041Z,27.00
2019-05-05T12:38:44.010Z,20.90
2019-05-05T12:41:14.853Z,34.63
2019-05-05T12:43:44.171Z,21.10
2019-05-05T12:46:26.530Z,27.55
2019-05-05T12:48:56.650Z,32.42
2019-05-05T12:51:26.498Z,24.98
2019-05-05T12:53:55.080Z,35.78
2019-05-05T12:56:23.889Z,30.00
2019-05-05T12:58:54.362Z,28.30
2019-05-05T13:01:24.659Z,22.73
2019-05-05T13:03:54.252Z,32.58
2019-05-05T13:06:24.018Z,23.90
2019-05-05T13:08:52.671Z,22.77
2019-05-05T13:11:21.244Z,20.40
2019-05-05T13:13:49.784Z,27.17
2019-05-05T13:16:18.244Z,21.37
2019-05-05T13:18:46.834Z,25.52
2019-05-05T13:21:35.122Z,34.10
2019-05-05T13:24:05.404Z,29.75
2019-05-05T13:26:35.538Z,33.50
2019-05-05T13:29:04.093Z,38.05
2019-05-05T13:31:33.768Z,52.40
2019-05-05T13:34:04.313Z,59.00
2019-05-05T13:36:33.454Z,56.05
2019-05-05T13:39:02.063Z,36.68
2019-05-05T13:41:30.554Z,37.45
2019-05-05T13:44:00.100Z,22.20
2019-05-05T13:46:33.906Z,24.50
2019-05-05T13:49:20.654Z,25.43
2019-05-05T13:51:49.224Z,38.03
2019-05-05T13:54:17.785Z,35.90
2019-05-05T13:56:46.286Z,30.40
2019-05-05T13:59:14.793Z,38.35
2019-05-05T14:01:44.806Z,26.17
2019-05-05T14:04:13.539Z,31.12
2019-05-05T14:06:44.012Z,23.40
2019-05-05T14:09:13.831Z,17.67
2019-05-05T14:11:44.422Z,23.47
2019-05-05T14:14:13.759Z,70.67
2019-05-05T14:16:44.693Z,36.70
2019-05-05T14:19:14.616Z,28.07
2019-05-05T14:21:44.569Z,32.85
2019-05-05T14:24:31.262Z,30.37
2019-05-05T14:27:04.350Z,31.17
2019-05-05T14:29:46.011Z,29.07
2019-05-05T14:32:16.302Z,27.00
2019-05-05T14:34:49.461Z,23.27
2019-05-05T14:37:34.642Z,20.65
2019-05-05T14:40:04.787Z,20.53
2019-05-05T14:42:34.195Z,21.02
2019-05-05T14:45:04.779Z,18.17
2019-05-05T14:47:33.666Z,20.35
2019-05-05T14:50:04.568Z,21.52
2019-05-05T14:52:32.616Z,16.02
2019-05-05T14:55:01.110Z,17.83
2019-05-05T14:57:29.638Z,23.87
2019-05-05T14:59:58.367Z,17.63
2019-05-05T15:02:26.913Z,21.68
2019-05-05T15:04:58.452Z,33.08
2019-05-05T15:07:28.642Z,42.83
2019-05-05T15:10:14.491Z,47.03
2019-05-05T15:12:56.812Z,29.90
2019-05-05T15:15:25.372Z,28.45
2019-05-05T15:17:53.887Z,28.95
2019-05-05T15:20:24.318Z,21.60
2019-05-05T15:22:54.136Z,31.02
2019-05-05T15:25:23.474Z,28.50
2019-05-05T15:27:54.056Z,25.45
2019-05-05T15:30:24.929Z,37.67
2019-05-05T15:32:54.118Z,25.43
2019-05-05T15:35:22.805Z,21.70
2019-05-05T15:37:51.286Z,27.30
2019-05-05T15:40:20.673Z,26.30
2019-05-05T15:42:49.228Z,26.37
2019-05-05T15:45:18.998Z,30.72
2019-05-05T15:47:47.513Z,42.05
2019-05-05T15:50:16.341Z,29.67
2019-05-05T15:52:44.851Z,27.17
2019-05-05T15:55:14.222Z,24.13
2019-05-05T15:57:44.245Z,26.17
2019-05-05T16:00:14.144Z,29.20
2019-05-05T16:02:44.226Z,21.15
2019-05-05T16:05:13.851Z,25.40
2019-05-05T16:07:43.963Z,27.32
2019-05-05T16:10:13.732Z,24.07
2019-05-05T16:12:42.229Z,28.87
2019-05-05T16:15:19.619Z,23.27
2019-05-05T16:17:49.780Z,45.03
2019-05-05T16:20:24.337Z,27.90
2019-05-05T16:22:54.542Z,37.43
2019-05-05T16:27:50.805Z,36.23
2019-05-05T16:30:20.504Z,34.75
2019-05-05T16:32:48.979Z,26.33
2019-05-05T16:35:17.704Z,34.53
2019-05-05T16:37:46.191Z,31.70
2019-05-05T16:40:14.820Z,35.83
2019-05-05T16:42:43.764Z,32.63
2019-05-05T16:45:13.638Z,29.83
2019-05-05T16:47:44.328Z,26.70
2019-05-05T16:50:13.667Z,22.55
2019-05-05T16:52:46.034Z,20.95
2019-05-05T16:55:15.915Z,21.07
2019-05-05T16:57:44.401Z,28.27
2019-05-05T17:00:13.699Z,42.88
2019-05-05T17:02:44.089Z,21.95
2019-05-05T17:05:13.739Z,22.15
2019-05-05T17:07:42.268Z,19.82
2019-05-05T17:10:13.329Z,21.85
2019-05-05T17:12:41.599Z,22.13
2019-05-05T17:15:15.959Z,31.43
2019-05-05T17:17:57.590Z,26.15
2019-05-05T17:20:33.704Z,30.70
2019-05-05T17:23:09.898Z,28.70
2019-05-05T17:25:41.324Z,26.87
2019-05-05T17:28:09.917Z,31.13
2019-05-05T17:30:38.473Z,34.73
2019-05-05T17:33:06.991Z,43.30
2019-05-05T17:35:35.619Z,41.28
2019-05-05T17:38:08.500Z,39.13
2019-05-05T17:40:38.695Z,38.65
2019-05-05T17:43:21.862Z,46.10
2019-05-05T17:45:55.535Z,45.75
2019-05-05T17:48:44.057Z,47.03
2019-05-05T17:51:13.959Z,47.17
2019-05-05T17:53:44.256Z,48.02
2019-05-05T17:56:13.812Z,33.45
2019-05-05T17:58:44.366Z,35.45
2019-05-05T18:01:12.594Z,52.27
2019-05-05T18:03:41.078Z,47.50
2019-05-05T18:06:20.884Z,49.15
2019-05-05T18:09:03.021Z,56.60
2019-05-05T18:11:35.188Z,41.63
2019-05-05T18:14:14.526Z,63.63
2019-05-05T18:16:44.775Z,73.00
2019-05-05T18:19:14.027Z,52.90
2019-05-05T18:21:43.873Z,72.05
2019-05-05T18:24:13.737Z,68.05
2019-05-05T18:26:43.559Z,62.25
2019-05-05T18:29:12.174Z,53.98
2019-05-05T18:31:43.026Z,44.65
2019-05-05T18:34:13.368Z,48.98
2019-05-05T18:36:41.920Z,54.83
2019-05-05T18:39:10.578Z,68.60
2019-05-05T18:41:40.699Z,90.50
2019-05-05T18:44:10.854Z,67.62
2019-05-05T18:46:39.395Z,60.45
2019-05-05T18:49:07.943Z,50.67
2019-05-05T18:51:36.461Z,59.98
2019-05-05T18:54:05.313Z,44.85
2019-05-05T18:56:34.779Z,47.27
2019-05-05T18:59:06.463Z,53.83
2019-05-05T19:01:35.596Z,66.57
2019-05-05T19:04:06.692Z,57.62
2019-05-05T19:06:36.877Z,66.90
2019-05-05T19:09:08.756Z,59.67
2019-05-05T19:11:37.305Z,38.70
2019-05-05T19:14:05.899Z,49.48
2019-05-05T19:16:34.700Z,45.88
2019-05-05T19:19:03.616Z,48.63
2019-05-05T19:21:35.864Z,46.00
2019-05-05T19:24:05.271Z,52.70
2019-05-05T19:26:33.855Z,44.53
2019-05-05T19:29:05.087Z,41.30
2019-05-05T19:31:36.284Z,43.17
2019-05-05T19:34:04.182Z,44.20
2019-05-05T19:36:34.315Z,52.33
2019-05-05T19:39:04.126Z,43.58
2019-05-05T19:41:34.772Z,41.75
2019-05-05T19:44:04.713Z,54.45
2019-05-05T19:46:47.666Z,48.40
2019-05-05T19:49:20.090Z,45.38
2019-05-05T19:51:49.499Z,44.67
2019-05-05T19:54:18.001Z,50.50
2019-05-05T19:56:46.584Z,51.50
2019-05-05T19:59:15.079Z,54.58
2019-05-05T20:01:44.947Z,52.90
2019-05-05T20:04:14.685Z,54.65
2019-05-05T20:06:44.253Z,59.45
2019-05-05T20:09:14.133Z,65.45
2019-05-05T20:11:43.901Z,76.90
2019-05-05T20:14:14.848Z,64.58
2019-05-05T20:17:00.524Z,62.88
2019-05-05T20:19:30.757Z,61.90
2019-05-05T20:21:59.269Z,56.55
2019-05-05T20:24:27.784Z,62.08
2019-05-05T20:26:56.290Z,61.92
2019-05-05T20:29:24.786Z,62.33
2019-05-05T20:31:54.788Z,63.50
2019-05-05T20:34:27.874Z,81.45
2019-05-05T20:37:16.201Z,82.65
2019-05-05T20:39:44.756Z,111.57
2019-05-05T20:42:14.926Z,131.65
2019-05-05T20:44:43.925Z,116.33
2019-05-05T20:47:12.788Z,110.80
2019-05-05T20:49:41.272Z,107.25
2019-05-05T20:52:09.883Z,307.35
2019-05-05T20:54:38.366Z,163.28
2019-05-05T20:57:06.879Z,91.85
2019-05-05T20:59:35.357Z,72.32
2019-05-05T21:02:04.419Z,74.80
2019-05-05T21:04:34.507Z,38.28
2019-05-05T21:07:04.456Z,54.35
2019-05-05T21:09:34.451Z,50.88
2019-05-05T21:12:04.833Z,35.40
2019-05-05T21:14:37.256Z,37.42
2019-05-05T21:17:04.210Z,53.20
2019-05-05T21:19:34.532Z,53.58
2019-05-05T21:22:22.684Z,62.27
2019-05-05T21:24:54.126Z,69.12
2019-05-05T21:27:24.528Z,83.57
2019-05-05T21:29:54.374Z,111.23
2019-05-05T21:32:25.227Z,103.47
2019-05-05T21:34:53.276Z,78.30
2019-05-05T21:37:21.756Z,62.27
2019-05-05T21:39:50.323Z,76.10
2019-05-05T21:42:18.799Z,68.35
2019-05-05T21:44:47.279Z,69.53
2019-05-05T21:47:15.803Z,69.53
2019-05-05T21:49:44.284Z,62.83
2019-05-05T21:52:20.193Z,52.37
2019-05-05T21:54:52.738Z,57.98
2019-05-05T21:57:34.718Z,64.92
2019-05-05T22:00:06.182Z,47.80
2019-05-05T22:02:34.708Z,47.50
2019-05-05T22:05:04.124Z,37.88
2019-05-05T22:07:33.639Z,47.17
2019-05-05T22:10:04.294Z,41.35
2019-05-05T22:12:33.354Z,39.25
2019-05-05T22:15:04.289Z,36.58
2019-05-05T22:17:33.662Z,43.07
2019-05-05T22:20:04.881Z,35.45
2019-05-05T22:22:36.390Z,23.65
2019-05-05T22:25:07.011Z,28.55
2019-05-05T22:27:35.491Z,36.17
2019-05-05T22:30:10.069Z,33.92
2019-05-05T22:32:36.781Z,29.20
2019-05-05T22:35:08.381Z,25.88
2019-05-05T22:37:36.868Z,21.27
2019-05-05T22:40:05.803Z,14.90
2019-05-05T22:42:34.323Z,21.95
2019-05-05T22:45:04.665Z,20.85
2019-05-05T22:47:34.494Z,28.38
2019-05-05T22:50:04.414Z,36.90
2019-05-05T22:52:34.383Z,36.25
2019-05-05T22:55:05.244Z,21.45
2019-05-05T22:57:34.430Z,21.63
2019-05-05T23:00:04.797Z,25.30
2019-05-05T23:02:34.945Z,22.48
2019-05-05T23:05:05.934Z,24.87
2019-05-05T23:07:35.066Z,23.47
2019-05-05T23:10:05.048Z,22.30
2019-05-05T23:12:35.078Z,23.67
2019-05-05T23:15:05.930Z,30.05
2019-05-05T23:17:51.504Z,23.77
2019-05-05T23:20:41.453Z,21.97
2019-05-05T23:23:14.661Z,12.25
2019-05-05T23:25:45.776Z,30.68
2019-05-05T23:28:14.734Z,26.57
2019-05-05T23:30:44.783Z,26.70
2019-05-05T23:33:14.297Z,18.23
2019-05-05T23:35:43.698Z,16.15
2019-05-05T23:38:14.233Z,12.37
2019-05-05T23:40:42.514Z,17.07
2019-05-05T23:43:11.028Z,27.73
2019-05-05T23:45:39.514Z,25.55
2019-05-05T23:48:09.257Z,18.05
2019-05-05T23:50:37.764Z,15.80
2019-05-05T23:53:07.203Z,15.13
2019-05-05T23:55:35.695Z,17.45
2019-05-05T23:58:05.155Z,16.67
